Time;durP1;ratioP1;P1;durP2;ratioP2;P2;SDS_P1;SDS_P2;PMS_P1;PMS_P2;Temp;Humidity;BMP_temperature;BMP_pressure;BME280_temperature;BME280_humidity;BME280_pressure;Samples;Min_cycle;Max_cycle;Signal;HPM_P1;HPM_P2
2024/01/30 00:01:49;;;;;;;8.43;5.50;;;5.60;99.90;;;;;;5048140;22;20585;-51
2024/01/30 00:04:16;;;;;;;8.07;6.40;;;5.60;99.90;;;;;;5043010;28;20214;-52
2024/01/30 00:06:42;;;;;;;7.87;5.63;;;5.60;99.90;;;;;;5029003;28;20754;-53
2024/01/30 00:09:08;;;;;;;6.87;5.17;;;5.60;99.90;;;;;;5052109;28;20194;-51
2024/01/30 00:11:34;;;;;;;9.77;5.93;;;5.60;99.90;;;;;;5049057;28;20194;-53
2024/01/30 00:14:00;;;;;;;6.67;5.00;;;5.60;99.90;;;;;;5029573;28;20283;-52
2024/01/30 00:16:26;;;;;;;8.53;5.87;;;5.50;99.90;;;;;;5040035;28;20227;-52
2024/01/30 00:18:52;;;;;;;7.70;5.37;;;5.50;99.90;;;;;;5040505;28;20198;-52
2024/01/30 00:21:18;;;;;;;5.80;5.13;;;5.40;99.90;;;;;;5039907;28;20198;-51
2024/01/30 00:23:43;;;;;;;9.90;6.53;;;5.40;99.90;;;;;;5033874;28;20191;-51
2024/01/30 00:26:09;;;;;;;9.37;5.63;;;5.40;99.90;;;;;;5034974;28;20198;-52
2024/01/30 00:28:35;;;;;;;8.87;5.60;;;5.40;99.90;;;;;;5036873;28;20285;-58
2024/01/30 00:31:01;;;;;;;11.70;5.40;;;5.50;99.90;;;;;;5033969;28;20194;-50
2024/01/30 00:33:26;;;;;;;9.13;5.60;;;5.40;99.90;;;;;;5037168;28;20202;-51
2024/01/30 00:35:52;;;;;;;10.07;6.20;;;5.40;99.90;;;;;;5032675;28;20229;-51
2024/01/30 00:38:17;;;;;;;8.27;5.43;;;5.40;99.90;;;;;;5035410;28;20195;-50
2024/01/30 00:40:43;;;;;;;9.70;5.90;;;5.40;99.90;;;;;;5035963;28;20201;-51
2024/01/30 00:43:08;;;;;;;11.73;6.30;;;5.40;99.90;;;;;;5040772;28;20261;-51
2024/01/30 00:45:34;;;;;;;7.47;5.37;;;5.40;99.90;;;;;;5017026;28;20271;-51
2024/01/30 00:47:59;;;;;;;6.90;5.20;;;5.30;99.90;;;;;;5033929;28;20268;-51
2024/01/30 00:50:25;;;;;;;7.23;5.90;;;5.40;99.90;;;;;;5035563;28;20195;-50
2024/01/30 00:52:50;;;;;;;6.50;5.50;;;5.30;99.90;;;;;;5037400;28;20219;-51
2024/01/30 00:55:16;;;;;;;8.27;5.67;;;5.30;99.90;;;;;;5046185;28;20198;-50
2024/01/30 00:57:42;;;;;;;9.10;6.00;;;5.20;99.90;;;;;;5018939;28;20198;-50
2024/01/30 01:00:09;;;;;;;7.50;5.37;;;5.30;99.90;;;;;;5019754;28;20245;-50
2024/01/30 01:02:35;;;;;;;8.27;5.83;;;5.30;99.90;;;;;;5014438;28;20209;-50
2024/01/30 01:05:02;;;;;;;9.47;5.97;;;5.30;99.90;;;;;;5051290;28;20199;-51
2024/01/30 01:07:27;;;;;;;7.43;5.07;;;5.30;99.90;;;;;;5041066;28;20216;-51
2024/01/30 01:09:53;;;;;;;9.60;6.23;;;5.30;99.90;;;;;;5029858;28;20210;-51
2024/01/30 01:12:18;;;;;;;9.23;5.60;;;5.20;99.90;;;;;;5033055;28;20197;-51
2024/01/30 01:14:44;;;;;;;8.93;5.87;;;5.10;99.90;;;;;;5042713;28;20318;-51
2024/01/30 01:17:09;;;;;;;7.10;5.20;;;5.20;99.90;;;;;;5033097;28;20230;-52
2024/01/30 01:19:35;;;;;;;7.87;5.70;;;5.30;99.90;;;;;;5034230;28;20198;-50
2024/01/30 01:22:00;;;;;;;9.33;5.23;;;5.30;99.90;;;;;;5015727;28;20202;-50
2024/01/30 01:24:26;;;;;;;12.23;6.53;;;5.30;99.90;;;;;;5035566;28;20271;-51
2024/01/30 01:26:52;;;;;;;5.87;4.97;;;5.20;99.90;;;;;;5028692;28;20301;-51
2024/01/30 01:29:17;;;;;;;6.60;4.80;;;5.20;99.90;;;;;;5025475;28;20282;-55
2024/01/30 01:31:43;;;;;;;7.67;6.20;;;5.30;99.90;;;;;;5014544;28;20207;-50
2024/01/30 01:34:12;;;;;;;8.33;6.07;;;5.30;99.90;;;;;;5030644;28;20614;-50
2024/01/30 01:36:38;;;;;;;9.20;6.47;;;5.20;99.90;;;;;;5035245;28;20315;-50
2024/01/30 01:39:04;;;;;;;9.50;5.70;;;5.20;99.90;;;;;;5038287;28;20301;-51
2024/01/30 01:41:31;;;;;;;5.80;4.97;;;5.20;99.90;;;;;;5037143;28;20601;-50
2024/01/30 01:43:58;;;;;;;7.00;5.73;;;5.10;99.90;;;;;;5043463;28;20234;-50
2024/01/30 01:46:26;;;;;;;8.53;6.23;;;5.10;99.90;;;;;;5041966;28;20202;-49
2024/01/30 01:48:51;;;;;;;8.10;5.57;;;5.10;99.90;;;;;;5035223;28;20213;-53
2024/01/30 01:51:17;;;;;;;9.90;5.87;;;5.10;99.90;;;;;;5042878;28;23196;-50
2024/01/30 01:53:42;;;;;;;7.37;5.07;;;5.20;99.90;;;;;;5037358;28;20710;-51
2024/01/30 01:56:08;;;;;;;10.57;6.53;;;5.10;99.90;;;;;;5042198;28;20611;-51
2024/01/30 01:58:35;;;;;;;10.67;6.50;;;5.10;99.90;;;;;;5016622;28;20252;-51
2024/01/30 02:01:02;;;;;;;8.47;5.43;;;5.10;99.90;;;;;;5043595;28;20222;-51
2024/01/30 02:03:27;;;;;;;8.90;5.97;;;5.10;99.90;;;;;;5041297;28;20214;-50
2024/01/30 02:05:54;;;;;;;7.27;6.07;;;5.10;99.90;;;;;;5039346;28;20229;-50
2024/01/30 02:08:20;;;;;;;6.63;5.60;;;5.00;99.90;;;;;;5034209;28;20664;-50
2024/01/30 02:10:45;;;;;;;6.73;5.70;;;5.00;99.90;;;;;;5034336;28;20205;-49
2024/01/30 02:13:11;;;;;;;8.80;6.57;;;5.10;99.90;;;;;;5035518;28;20190;-50
2024/01/30 02:15:36;;;;;;;9.27;6.03;;;5.10;99.90;;;;;;5039139;28;20307;-50
2024/01/30 02:18:02;;;;;;;6.50;5.30;;;5.10;99.90;;;;;;5036778;28;20233;-50
2024/01/30 02:20:31;;;;;;;10.40;6.10;;;5.10;99.90;;;;;;5037269;28;20773;-50
2024/01/30 02:23:01;;;;;;;10.03;6.40;;;5.00;99.90;;;;;;5034279;28;20560;-50
2024/01/30 02:25:56;;;;;;;6.37;5.73;;;5.00;99.90;;;;;;5038827;28;20867;-50
2024/01/30 02:28:21;;;;;;;9.10;6.37;;;5.00;99.90;;;;;;5010958;28;20296;-51
2024/01/30 02:30:47;;;;;;;7.97;6.63;;;5.00;99.90;;;;;;5031543;28;20194;-50
2024/01/30 02:33:13;;;;;;;7.13;5.67;;;5.00;99.90;;;;;;5044031;28;20194;-51
2024/01/30 02:35:39;;;;;;;7.43;5.97;;;5.00;99.90;;;;;;5037746;28;20269;-50
2024/01/30 02:38:05;;;;;;;8.77;5.80;;;5.00;99.90;;;;;;5035438;28;20210;-51
2024/01/30 02:40:31;;;;;;;9.97;6.07;;;5.00;99.90;;;;;;5036386;28;20224;-50
2024/01/30 02:43:01;;;;;;;9.33;5.50;;;5.00;99.90;;;;;;5030776;28;20207;-50
2024/01/30 02:45:26;;;;;;;9.83;5.77;;;5.00;99.90;;;;;;5031300;28;20194;-50
2024/01/30 02:47:52;;;;;;;12.07;5.83;;;4.90;99.90;;;;;;5016494;28;20828;-50
2024/01/30 02:50:17;;;;;;;10.17;6.33;;;5.00;99.90;;;;;;5014748;28;20214;-51
2024/01/30 02:52:46;;;;;;;8.93;6.50;;;4.90;99.90;;;;;;5036364;28;20203;-51
2024/01/30 02:55:12;;;;;;;6.53;5.70;;;4.90;99.90;;;;;;5038336;28;20672;-50
2024/01/30 02:57:38;;;;;;;10.37;6.70;;;4.80;99.90;;;;;;5038780;28;20709;-56
2024/01/30 03:00:05;;;;;;;10.03;6.03;;;4.90;99.90;;;;;;5032082;28;20747;-56
2024/01/30 03:02:31;;;;;;;8.13;5.77;;;4.90;99.90;;;;;;5027457;28;20611;-49
2024/01/30 03:04:56;;;;;;;7.77;5.27;;;4.90;99.90;;;;;;5017869;28;20675;-50
2024/01/30 03:07:22;;;;;;;8.67;6.00;;;4.80;99.90;;;;;;5006383;28;20920;-50
2024/01/30 03:09:48;;;;;;;10.63;5.83;;;4.80;99.90;;;;;;5033387;28;20271;-50
2024/01/30 03:12:14;;;;;;;7.87;5.47;;;4.60;99.90;;;;;;5040097;28;20195;-51
2024/01/30 03:14:39;;;;;;;8.43;5.80;;;4.70;99.90;;;;;;5044510;28;20202;-51
2024/01/30 03:17:04;;;;;;;8.40;5.63;;;4.80;99.90;;;;;;5033861;28;20282;-50
2024/01/30 03:19:30;;;;;;;7.53;5.63;;;4.80;99.90;;;;;;5030282;28;20212;-51
2024/01/30 03:21:55;;;;;;;9.23;5.67;;;4.80;99.90;;;;;;5033945;28;21021;-49
2024/01/30 03:24:21;;;;;;;6.47;5.47;;;4.70;99.90;;;;;;5014730;28;20185;-49
2024/01/30 03:26:46;;;;;;;10.30;6.33;;;4.70;99.90;;;;;;5033583;28;20207;-50
2024/01/30 03:29:12;;;;;;;8.47;6.20;;;4.70;99.90;;;;;;5038001;28;20215;-50
2024/01/30 03:31:39;;;;;;;8.87;6.17;;;4.70;99.90;;;;;;5014546;28;20191;-50
2024/01/30 03:34:04;;;;;;;9.83;5.60;;;4.80;99.90;;;;;;5034357;28;20203;-50
2024/01/30 03:36:32;;;;;;;10.37;6.33;;;4.80;99.90;;;;;;5038466;28;20221;-50
2024/01/30 03:38:58;;;;;;;8.80;6.23;;;4.80;99.90;;;;;;5025448;28;20215;-50
2024/01/30 03:41:24;;;;;;;10.70;6.40;;;4.70;99.90;;;;;;5011144;28;20312;-49
2024/01/30 03:43:49;;;;;;;8.93;6.20;;;4.70;99.90;;;;;;5036892;28;20676;-50
2024/01/30 03:46:15;;;;;;;9.97;6.47;;;4.60;99.90;;;;;;5036190;28;20928;-50
2024/01/30 03:48:41;;;;;;;8.23;5.50;;;4.60;99.90;;;;;;5034043;28;20222;-50
2024/01/30 03:51:06;;;;;;;6.20;5.23;;;4.60;99.90;;;;;;5035760;28;20207;-51
2024/01/30 03:53:31;;;;;;;7.90;6.70;;;4.60;99.90;;;;;;5010912;28;20616;-50
2024/01/30 03:55:58;;;;;;;11.33;6.43;;;4.60;99.90;;;;;;5015292;28;20482;-50
2024/01/30 03:58:23;;;;;;;11.50;6.70;;;4.60;99.90;;;;;;5037138;28;20678;-50
2024/01/30 04:00:49;;;;;;;8.87;6.90;;;4.70;99.90;;;;;;5038053;28;20287;-50
2024/01/30 04:03:15;;;;;;;6.43;5.40;;;4.70;99.90;;;;;;5042599;28;20202;-50
2024/01/30 04:05:41;;;;;;;8.07;5.43;;;4.60;99.90;;;;;;5039554;28;20195;-50
2024/01/30 04:08:07;;;;;;;9.00;6.47;;;4.60;99.90;;;;;;5042154;28;20201;-51
2024/01/30 04:10:33;;;;;;;12.93;6.30;;;4.70;99.90;;;;;;5003334;28;20719;-51
2024/01/30 04:13:01;;;;;;;9.97;6.33;;;4.60;99.90;;;;;;5030099;28;20206;-50
2024/01/30 04:15:29;;;;;;;10.73;6.43;;;4.60;99.90;;;;;;5040067;28;20232;-50
2024/01/30 04:17:58;;;;;;;8.67;6.73;;;4.60;99.90;;;;;;5019632;28;20593;-51
2024/01/30 04:20:23;;;;;;;11.27;6.33;;;4.50;99.90;;;;;;5038367;28;20198;-51
2024/01/30 04:22:49;;;;;;;8.13;6.00;;;4.50;99.90;;;;;;5015336;28;20209;-50
2024/01/30 04:25:15;;;;;;;9.20;6.20;;;4.60;99.90;;;;;;5037161;28;20210;-50
2024/01/30 04:27:40;;;;;;;6.90;6.20;;;4.60;99.90;;;;;;5036219;28;20206;-50
2024/01/30 04:30:07;;;;;;;7.87;6.37;;;4.50;99.90;;;;;;5015196;28;20198;-51
2024/01/30 04:32:33;;;;;;;7.20;6.20;;;4.50;99.90;;;;;;5034836;28;20540;-54
2024/01/30 04:34:58;;;;;;;8.73;6.37;;;4.50;99.90;;;;;;5014507;28;20659;-56
2024/01/30 04:37:24;;;;;;;6.93;4.87;;;4.50;99.90;;;;;;5038397;28;20214;-51
2024/01/30 04:39:50;;;;;;;6.77;6.03;;;4.50;99.90;;;;;;5035353;28;20253;-50
2024/01/30 04:42:17;;;;;;;9.20;6.33;;;4.50;99.90;;;;;;5031680;28;20843;-50
2024/01/30 04:44:43;;;;;;;11.10;5.70;;;4.40;99.90;;;;;;5009120;28;20290;-50
2024/01/30 04:47:10;;;;;;;8.13;5.63;;;4.50;99.90;;;;;;5034144;28;20293;-51
2024/01/30 04:49:36;;;;;;;8.37;5.73;;;4.50;99.90;;;;;;5033450;28;20236;-50
2024/01/30 04:52:03;;;;;;;9.23;6.60;;;4.50;99.90;;;;;;5032589;28;20207;-53
2024/01/30 04:54:28;;;;;;;9.27;6.20;;;4.40;99.90;;;;;;5014363;28;21015;-55
2024/01/30 04:56:54;;;;;;;10.57;6.50;;;4.50;99.90;;;;;;5020352;28;20278;-51
2024/01/30 04:59:19;;;;;;;8.10;5.93;;;4.50;99.90;;;;;;5008972;28;20210;-51
2024/01/30 05:01:45;;;;;;;11.37;8.73;;;4.50;99.90;;;;;;5013098;28;20553;-51
2024/01/30 05:04:11;;;;;;;7.23;5.40;;;4.50;99.90;;;;;;5033266;28;20206;-52
2024/01/30 05:06:37;;;;;;;9.23;6.83;;;4.40;99.90;;;;;;5014938;28;20205;-51
2024/01/30 05:09:06;;;;;;;11.77;6.30;;;4.50;99.90;;;;;;5030911;28;20226;-53
2024/01/30 05:11:31;;;;;;;8.33;6.50;;;4.60;99.90;;;;;;5033630;28;20256;-50
2024/01/30 05:13:57;;;;;;;10.87;6.30;;;4.60;99.90;;;;;;5030581;28;21034;-54
2024/01/30 05:16:22;;;;;;;9.40;6.77;;;4.60;99.90;;;;;;5033899;28;20272;-52
2024/01/30 05:18:48;;;;;;;10.93;6.80;;;4.50;99.90;;;;;;5032442;28;20209;-54
2024/01/30 05:21:14;;;;;;;11.77;5.83;;;4.50;99.90;;;;;;5035202;28;20198;-51
2024/01/30 05:23:41;;;;;;;9.30;6.73;;;4.40;99.90;;;;;;5016188;28;20209;-50
2024/01/30 05:26:07;;;;;;;7.37;6.30;;;4.50;99.90;;;;;;5024080;28;20580;-52
2024/01/30 05:28:33;;;;;;;9.87;6.03;;;4.50;99.90;;;;;;5021472;28;20646;-52
2024/01/30 05:30:58;;;;;;;6.70;5.73;;;4.40;99.90;;;;;;5032088;28;20199;-51
2024/01/30 05:33:24;;;;;;;6.90;6.20;;;4.40;99.90;;;;;;5032697;28;20205;-50
2024/01/30 05:35:50;;;;;;;7.97;6.53;;;4.40;99.90;;;;;;5032290;28;20229;-53
2024/01/30 05:38:16;;;;;;;11.63;5.97;;;4.40;99.90;;;;;;5035575;28;20602;-53
2024/01/30 05:40:41;;;;;;;7.50;6.23;;;4.40;99.90;;;;;;5012868;28;20283;-51
2024/01/30 05:43:07;;;;;;;11.43;6.93;;;4.40;99.90;;;;;;5029919;28;20553;-59
2024/01/30 05:45:35;;;;;;;10.33;7.37;;;4.40;99.90;;;;;;5029734;28;20278;-58
2024/01/30 05:48:00;;;;;;;9.90;7.03;;;4.40;99.90;;;;;;5014192;28;20206;-52
2024/01/30 05:50:26;;;;;;;8.70;6.70;;;4.40;99.90;;;;;;5038256;28;20600;-51
2024/01/30 05:52:52;;;;;;;10.70;6.93;;;4.30;99.90;;;;;;5018379;28;20923;-54
2024/01/30 05:55:18;;;;;;;7.90;6.47;;;4.40;99.90;;;;;;5028879;28;20618;-52
2024/01/30 05:57:43;;;;;;;11.47;6.43;;;4.50;99.90;;;;;;5036753;28;20641;-52
2024/01/30 06:00:09;;;;;;;13.10;6.63;;;4.50;99.90;;;;;;5029358;28;20227;-53
2024/01/30 06:02:35;;;;;;;7.53;5.73;;;4.40;99.90;;;;;;5034300;28;20210;-53
2024/01/30 06:05:01;;;;;;;8.57;6.67;;;4.40;99.90;;;;;;5042091;28;20894;-52
2024/01/30 06:07:26;;;;;;;9.30;7.10;;;4.40;99.90;;;;;;5036239;28;20771;-51
2024/01/30 06:09:52;;;;;;;11.83;6.07;;;4.30;99.90;;;;;;5012863;28;20215;-52
2024/01/30 06:12:17;;;;;;;7.93;6.27;;;4.40;99.90;;;;;;5032500;28;20217;-52
2024/01/30 06:14:43;;;;;;;9.07;6.10;;;4.40;99.90;;;;;;5035333;28;20207;-52
2024/01/30 06:17:09;;;;;;;8.17;6.10;;;4.50;99.90;;;;;;5039793;28;20226;-52
2024/01/30 06:19:35;;;;;;;8.07;6.73;;;4.50;99.90;;;;;;5036386;28;20201;-52
2024/01/30 06:22:00;;;;;;;8.17;6.37;;;4.60;99.90;;;;;;5039250;28;20205;-51
2024/01/30 06:24:26;;;;;;;6.73;5.53;;;4.50;99.90;;;;;;5035445;28;20225;-51
2024/01/30 06:26:51;;;;;;;9.33;6.80;;;4.50;99.90;;;;;;5034162;28;20854;-58
2024/01/30 06:29:17;;;;;;;7.30;6.60;;;4.50;99.90;;;;;;5018594;28;20895;-52
2024/01/30 06:31:43;;;;;;;9.53;6.73;;;4.50;99.90;;;;;;5036038;28;20202;-59
2024/01/30 06:34:11;;;;;;;7.77;6.07;;;4.50;99.90;;;;;;5019120;28;20191;-61
2024/01/30 06:36:37;;;;;;;9.70;6.87;;;4.50;99.90;;;;;;5026242;28;20265;-60
2024/01/30 06:39:03;;;;;;;9.30;6.60;;;4.50;99.90;;;;;;5027182;28;20256;-60
2024/01/30 06:41:29;;;;;;;7.67;6.37;;;4.50;99.90;;;;;;5010172;28;20199;-59
2024/01/30 06:43:56;;;;;;;8.70;6.47;;;4.50;99.90;;;;;;5013137;28;20294;-59
2024/01/30 06:46:21;;;;;;;11.07;6.90;;;4.50;99.90;;;;;;5032753;28;20247;-52
2024/01/30 06:48:47;;;;;;;8.30;6.73;;;4.40;99.90;;;;;;5030112;28;20284;-51
2024/01/30 06:51:12;;;;;;;9.33;5.73;;;4.40;99.90;;;;;;5031731;28;20198;-51
2024/01/30 06:53:38;;;;;;;9.83;6.50;;;4.40;99.90;;;;;;5030493;28;20198;-51
2024/01/30 06:56:04;;;;;;;8.77;6.30;;;4.40;99.90;;;;;;5029601;28;20245;-51
2024/01/30 06:58:29;;;;;;;14.47;7.07;;;4.40;99.90;;;;;;5011821;28;20203;-53
2024/01/30 07:00:56;;;;;;;9.53;6.20;;;4.40;99.90;;;;;;5029202;28;20269;-53
2024/01/30 07:03:21;;;;;;;9.00;6.37;;;4.40;99.90;;;;;;5033046;28;20798;-53
2024/01/30 07:05:47;;;;;;;10.47;6.83;;;4.40;99.90;;;;;;5030676;28;20198;-51
2024/01/30 07:08:12;;;;;;;9.50;6.67;;;4.40;99.90;;;;;;5015199;28;20194;-52
2024/01/30 07:10:38;;;;;;;9.13;6.07;;;4.40;99.90;;;;;;5030674;28;20675;-53
2024/01/30 07:13:05;;;;;;;7.57;6.50;;;4.50;99.90;;;;;;5036993;28;20191;-51
2024/01/30 07:15:31;;;;;;;8.90;6.27;;;4.50;99.90;;;;;;5036124;28;20286;-51
2024/01/30 07:17:57;;;;;;;10.47;6.40;;;4.50;99.90;;;;;;5048463;28;20198;-51
2024/01/30 07:20:22;;;;;;;9.93;6.80;;;4.50;99.90;;;;;;5041922;28;20679;-51
2024/01/30 07:22:48;;;;;;;8.93;6.60;;;4.60;99.90;;;;;;5042973;28;20206;-52
2024/01/30 07:25:13;;;;;;;8.10;6.73;;;4.60;99.90;;;;;;5033508;28;20198;-55
2024/01/30 07:27:39;;;;;;;12.70;7.50;;;4.70;99.90;;;;;;5034981;28;20277;-52
2024/01/30 07:30:05;;;;;;;10.57;6.87;;;4.80;99.90;;;;;;5037349;28;20728;-52
2024/01/30 07:32:31;;;;;;;7.67;6.53;;;4.80;99.90;;;;;;5040439;28;20187;-52
2024/01/30 07:34:57;;;;;;;9.30;7.07;;;4.80;99.90;;;;;;5040889;28;20287;-52
2024/01/30 07:37:22;;;;;;;10.30;7.03;;;4.80;99.90;;;;;;5022778;28;20485;-51
2024/01/30 07:39:48;;;;;;;10.47;7.37;;;4.90;99.90;;;;;;5010398;28;20381;-52
2024/01/30 07:42:13;;;;;;;14.37;8.10;;;4.90;99.90;;;;;;5020394;28;20198;-52
2024/01/30 07:44:39;;;;;;;11.47;6.73;;;4.90;99.90;;;;;;5019932;28;20195;-51
2024/01/30 07:47:05;;;;;;;8.93;6.93;;;4.90;99.90;;;;;;5037304;28;20933;-50
2024/01/30 07:49:30;;;;;;;9.90;7.00;;;4.90;99.90;;;;;;5016445;28;20198;-51
2024/01/30 07:51:56;;;;;;;7.80;7.00;;;4.90;99.90;;;;;;5016995;28;20205;-52
2024/01/30 07:54:22;;;;;;;10.97;7.13;;;5.00;99.90;;;;;;5038966;28;20190;-52
2024/01/30 07:56:47;;;;;;;13.43;8.27;;;4.90;99.90;;;;;;5040618;28;20214;-51
2024/01/30 07:59:13;;;;;;;8.80;6.20;;;4.90;99.90;;;;;;5046606;28;20213;-52
2024/01/30 08:01:38;;;;;;;10.67;7.40;;;4.90;99.90;;;;;;5019170;28;20253;-52
2024/01/30 08:04:04;;;;;;;11.10;7.50;;;5.00;99.90;;;;;;5041124;28;20202;-51
2024/01/30 08:06:29;;;;;;;8.70;6.90;;;5.10;99.90;;;;;;5038252;28;20199;-51
2024/01/30 08:08:55;;;;;;;11.67;7.50;;;5.10;99.90;;;;;;5023503;28;20195;-51
2024/01/30 08:11:25;;;;;;;13.63;7.43;;;5.10;99.90;;;;;;5033375;28;20286;-51
2024/01/30 08:13:51;;;;;;;11.27;7.10;;;5.10;99.90;;;;;;5040710;28;20201;-52
2024/01/30 08:16:17;;;;;;;8.60;7.23;;;5.20;99.90;;;;;;5037255;28;20226;-51
2024/01/30 08:18:43;;;;;;;12.63;7.47;;;5.20;99.90;;;;;;5015402;28;20674;-51
2024/01/30 08:21:09;;;;;;;10.80;7.17;;;5.20;99.90;;;;;;5031092;28;20195;-52
2024/01/30 08:23:34;;;;;;;8.37;6.37;;;5.20;99.90;;;;;;5040977;28;20424;-52
2024/01/30 08:26:00;;;;;;;10.00;7.60;;;5.30;99.90;;;;;;5016701;28;20267;-52
2024/01/30 08:28:26;;;;;;;8.13;7.20;;;5.30;99.90;;;;;;5039344;28;20226;-52
2024/01/30 08:30:51;;;;;;;7.77;6.97;;;5.40;99.90;;;;;;5051893;28;20603;-52
2024/01/30 08:33:17;;;;;;;11.23;8.03;;;5.40;99.90;;;;;;5052666;28;20794;-52
2024/01/30 08:35:42;;;;;;;11.23;7.70;;;5.40;99.90;;;;;;5050147;28;20385;-56
2024/01/30 08:38:08;;;;;;;12.30;6.90;;;5.50;99.90;;;;;;5047959;28;20229;-50
2024/01/30 08:40:34;;;;;;;12.23;7.23;;;5.70;99.90;;;;;;5060367;28;20202;-51
2024/01/30 08:43:00;;;;;;;14.03;7.30;;;5.70;99.90;;;;;;5035674;28;20924;-49
2024/01/30 08:45:25;;;;;;;10.27;7.60;;;5.70;99.90;;;;;;5029883;28;20208;-50
2024/01/30 08:47:51;;;;;;;8.77;7.03;;;5.70;99.90;;;;;;5019522;28;20203;-51
2024/01/30 08:50:19;;;;;;;9.83;7.40;;;5.70;99.90;;;;;;5053764;28;20227;-52
2024/01/30 08:52:44;;;;;;;17.30;7.53;;;5.90;99.90;;;;;;5042600;28;20194;-52
2024/01/30 08:55:10;;;;;;;11.37;7.10;;;5.90;99.90;;;;;;5034655;28;20202;-52
2024/01/30 08:57:35;;;;;;;11.00;6.90;;;6.10;99.90;;;;;;5062634;28;20700;-51
2024/01/30 09:00:04;;;;;;;14.07;8.07;;;6.00;99.90;;;;;;5037220;28;20222;-51
2024/01/30 09:02:30;;;;;;;12.10;7.30;;;6.10;99.90;;;;;;5042834;28;20264;-51
2024/01/30 09:04:55;;;;;;;11.20;7.37;;;6.20;99.90;;;;;;5058359;28;20234;-51
2024/01/30 09:07:21;;;;;;;15.10;8.10;;;6.20;99.90;;;;;;5024616;28;20189;-52
2024/01/30 09:09:46;;;;;;;12.87;8.30;;;6.10;99.90;;;;;;5034907;28;20207;-51
2024/01/30 09:12:12;;;;;;;11.60;7.73;;;6.10;99.90;;;;;;5032352;28;20620;-52
2024/01/30 09:14:38;;;;;;;11.63;6.77;;;6.20;99.90;;;;;;5038263;28;20202;-52
2024/01/30 09:17:04;;;;;;;10.67;8.13;;;6.30;99.90;;;;;;5014826;28;20809;-52
2024/01/30 09:19:30;;;;;;;8.83;6.73;;;6.30;99.90;;;;;;5055413;28;20183;-51
2024/01/30 09:21:56;;;;;;;9.43;6.70;;;6.30;99.90;;;;;;5032561;28;20281;-52
2024/01/30 09:24:21;;;;;;;9.33;7.33;;;6.40;99.90;;;;;;5045570;28;20510;-52
2024/01/30 09:26:46;;;;;;;11.10;7.47;;;6.40;99.90;;;;;;5042454;28;20581;-52
2024/01/30 09:29:12;;;;;;;16.87;8.30;;;6.40;99.90;;;;;;5038942;28;20354;-52
2024/01/30 09:31:38;;;;;;;11.10;7.17;;;6.40;99.90;;;;;;5056126;28;20202;-52
2024/01/30 09:34:03;;;;;;;10.73;7.53;;;6.40;99.90;;;;;;5060667;28;20214;-52
2024/01/30 09:36:29;;;;;;;13.00;8.30;;;6.40;99.90;;;;;;5058248;28;20234;-52
2024/01/30 09:38:54;;;;;;;10.53;8.00;;;6.40;99.90;;;;;;5041054;28;20245;-52
2024/01/30 09:41:23;;;;;;;8.10;7.13;;;6.40;99.90;;;;;;5029338;28;20197;-52
2024/01/30 09:43:50;;;;;;;10.63;7.73;;;6.40;99.90;;;;;;5044206;28;20417;-52
2024/01/30 09:46:18;;;;;;;11.30;8.70;;;6.40;99.90;;;;;;5049432;28;20203;-51
2024/01/30 09:48:49;;;;;;;9.83;6.93;;;6.60;99.90;;;;;;5049905;28;20652;-52
2024/01/30 09:51:17;;;;;;;8.43;6.37;;;6.60;99.90;;;;;;5041298;28;20190;-52
2024/01/30 09:53:46;;;;;;;10.77;6.70;;;6.60;99.90;;;;;;5048120;28;20199;-52
2024/01/30 09:56:13;;;;;;;12.20;7.03;;;6.90;99.90;;;;;;5043765;28;20219;-52
2024/01/30 09:58:39;;;;;;;10.57;7.20;;;6.90;99.90;;;;;;5046296;28;20259;-52
2024/01/30 10:01:05;;;;;;;10.70;6.67;;;6.90;99.90;;;;;;5025500;28;20223;-52
2024/01/30 10:03:31;;;;;;;9.13;7.10;;;6.80;99.90;;;;;;5048050;28;20255;-51
2024/01/30 10:05:57;;;;;;;7.90;6.70;;;6.80;99.90;;;;;;5048589;28;20195;-52
2024/01/30 10:08:22;;;;;;;9.27;6.80;;;6.90;99.90;;;;;;5045352;28;20187;-50
2024/01/30 10:10:52;;;;;;;9.87;6.10;;;6.90;99.90;;;;;;5040625;28;20695;-51
2024/01/30 10:13:18;;;;;;;10.87;6.97;;;7.10;99.90;;;;;;5054933;28;20241;-53
2024/01/30 10:15:44;;;;;;;8.43;6.03;;;7.10;99.90;;;;;;5052472;28;20714;-52
2024/01/30 10:18:10;;;;;;;9.80;6.27;;;7.20;99.90;;;;;;5040285;28;20290;-52
2024/01/30 10:20:36;;;;;;;13.97;7.27;;;7.30;99.90;;;;;;5052121;28;20676;-52
2024/01/30 10:23:02;;;;;;;8.60;6.40;;;7.20;99.90;;;;;;5055825;28;20189;-52
2024/01/30 10:25:27;;;;;;;8.63;5.83;;;7.30;99.90;;;;;;5050949;28;20305;-52
2024/01/30 10:27:56;;;;;;;8.83;6.23;;;7.40;99.80;;;;;;5042162;28;20274;-52
2024/01/30 10:30:22;;;;;;;11.37;6.57;;;7.40;99.90;;;;;;5046456;28;20225;-51
2024/01/30 10:32:48;;;;;;;14.67;7.50;;;7.30;99.90;;;;;;5023366;28;20260;-50
2024/01/30 10:35:14;;;;;;;8.80;5.63;;;7.50;99.50;;;;;;5035331;28;20202;-51
2024/01/30 10:37:43;;;;;;;8.20;5.17;;;7.50;99.40;;;;;;5048721;28;20218;-54
2024/01/30 10:40:12;;;;;;;9.10;6.53;;;7.50;99.40;;;;;;5053013;28;20190;-51
2024/01/30 10:42:42;;;;;;;8.37;6.13;;;7.60;99.10;;;;;;5023874;28;20198;-51
2024/01/30 10:45:10;;;;;;;11.00;6.47;;;7.60;98.90;;;;;;5041804;28;20202;-51
2024/01/30 10:47:37;;;;;;;9.80;5.47;;;7.50;99.20;;;;;;5043140;28;20266;-51
2024/01/30 10:50:03;;;;;;;7.93;6.20;;;7.70;99.10;;;;;;5051597;28;20285;-52
2024/01/30 10:52:32;;;;;;;7.67;5.90;;;7.80;98.80;;;;;;5049415;28;20277;-50
2024/01/30 10:54:58;;;;;;;9.07;5.90;;;7.80;98.60;;;;;;5053848;28;20281;-50
2024/01/30 10:57:25;;;;;;;10.03;6.60;;;7.80;98.40;;;;;;5041776;28;20207;-50
2024/01/30 10:59:53;;;;;;;7.73;5.60;;;7.90;98.90;;;;;;5051460;28;20209;-51
2024/01/30 11:02:20;;;;;;;7.67;5.53;;;8.00;98.40;;;;;;5054925;28;20562;-51
2024/01/30 11:04:46;;;;;;;11.37;6.53;;;8.10;98.30;;;;;;5054587;28;20206;-52
2024/01/30 11:07:16;;;;;;;14.63;5.80;;;8.30;98.00;;;;;;5048044;28;20206;-52
2024/01/30 11:09:52;;;;;;;7.63;5.63;;;8.40;97.60;;;;;;5053173;28;20268;-52
2024/01/30 11:12:22;;;;;;;6.63;5.30;;;8.40;97.80;;;;;;5047240;28;20248;-52
2024/01/30 11:14:48;;;;;;;7.13;5.33;;;8.60;97.60;;;;;;5043410;28;20210;-52
2024/01/30 11:17:14;;;;;;;8.30;5.23;;;8.80;96.70;;;;;;5053675;28;20210;-52
2024/01/30 11:19:42;;;;;;;8.87;5.87;;;8.90;96.40;;;;;;5036223;28;20191;-52
2024/01/30 11:22:07;;;;;;;7.83;5.67;;;8.90;96.70;;;;;;5057773;28;20191;-58
2024/01/30 11:24:42;;;;;;;7.23;5.53;;;9.00;95.90;;;;;;5053078;28;20201;-51
2024/01/30 11:27:10;;;;;;;9.13;5.53;;;8.80;96.10;;;;;;5022841;28;20190;-53
2024/01/30 11:29:36;;;;;;;6.10;5.43;;;8.90;96.20;;;;;;5058668;28;20198;-53
2024/01/30 11:32:02;;;;;;;8.63;5.50;;;8.90;95.90;;;;;;5056132;28;20225;-51
2024/01/30 11:34:28;;;;;;;8.40;5.83;;;8.90;95.90;;;;;;5032646;28;20225;-55
2024/01/30 11:36:58;;;;;;;11.93;6.83;;;8.90;96.30;;;;;;5045368;28;20291;-53
2024/01/30 11:39:29;;;;;;;9.83;6.40;;;8.90;95.90;;;;;;5028842;28;20297;-51
2024/01/30 11:41:55;;;;;;;7.73;5.60;;;8.90;96.20;;;;;;5034527;28;20295;-52
2024/01/30 11:44:21;;;;;;;8.90;6.53;;;8.80;96.20;;;;;;5044060;28;20195;-52
2024/01/30 11:46:53;;;;;;;8.87;6.70;;;8.90;95.80;;;;;;5039691;28;20209;-53
2024/01/30 11:49:19;;;;;;;9.43;6.60;;;8.70;96.00;;;;;;5016874;28;20579;-57
2024/01/30 11:51:51;;;;;;;8.67;5.63;;;8.70;96.20;;;;;;5025246;28;20203;-57
2024/01/30 11:54:17;;;;;;;11.53;5.63;;;8.70;96.20;;;;;;5031115;28;20668;-57
2024/01/30 11:56:43;;;;;;;8.27;6.33;;;8.60;96.80;;;;;;5019929;28;20788;-56
2024/01/30 11:59:09;;;;;;;7.90;6.10;;;8.70;96.80;;;;;;5034279;28;20197;-57
2024/01/30 12:01:35;;;;;;;7.70;5.93;;;8.70;96.40;;;;;;5018240;28;20238;-52
2024/01/30 12:04:01;;;;;;;8.87;6.17;;;8.70;96.30;;;;;;5020615;28;20286;-56
2024/01/30 12:06:28;;;;;;;6.43;5.40;;;8.70;96.70;;;;;;5036705;28;20241;-52
2024/01/30 12:08:59;;;;;;;7.77;6.40;;;8.70;96.50;;;;;;5035676;28;20499;-52
2024/01/30 12:11:24;;;;;;;7.43;5.47;;;8.70;97.00;;;;;;5023301;28;20327;-52
2024/01/30 12:13:52;;;;;;;9.53;5.93;;;8.80;96.80;;;;;;5031866;28;20679;-52
2024/01/30 12:16:18;;;;;;;6.73;5.43;;;8.70;97.30;;;;;;5040252;28;20221;-52
2024/01/30 12:18:43;;;;;;;9.67;6.53;;;8.90;96.50;;;;;;5034241;28;20204;-52
2024/01/30 12:21:09;;;;;;;8.80;6.53;;;9.00;96.30;;;;;;5036580;28;20195;-52
2024/01/30 12:23:35;;;;;;;7.23;6.17;;;9.20;97.20;;;;;;5038111;28;20204;-52
2024/01/30 12:26:03;;;;;;;8.73;6.53;;;9.30;96.00;;;;;;5028637;28;20820;-60
2024/01/30 12:28:29;;;;;;;8.80;6.73;;;9.30;96.20;;;;;;5006523;28;20616;-57
2024/01/30 12:31:02;;;;;;;10.43;6.17;;;9.50;96.00;;;;;;5032123;28;20299;-59
2024/01/30 12:33:29;;;;;;;8.47;6.30;;;9.60;95.90;;;;;;5018293;28;20570;-58
2024/01/30 12:35:56;;;;;;;10.23;6.63;;;9.70;96.00;;;;;;5037178;28;20595;-59
2024/01/30 12:38:21;;;;;;;9.53;7.20;;;9.80;95.70;;;;;;5041868;28;20266;-58
2024/01/30 12:40:47;;;;;;;8.63;6.43;;;9.90;95.50;;;;;;5033331;28;20340;-53
2024/01/30 12:43:16;;;;;;;7.07;6.27;;;9.70;95.50;;;;;;5061412;23;20203;-53
2024/01/30 12:45:42;;;;;;;8.43;6.63;;;9.70;96.00;;;;;;4991400;28;20205;-53
2024/01/30 12:48:09;;;;;;;8.13;6.13;;;9.70;96.00;;;;;;5032262;28;20210;-51